createdAt,value
2022-08-23T00:38:32.797Z,6.00
2022-08-23T00:41:04.516Z,4.80
2022-08-23T00:44:39.776Z,5.10
2022-08-23T00:47:32.924Z,4.50
2022-08-23T00:50:24.476Z,4.90
2022-08-23T00:53:13.449Z,4.60
2022-08-23T00:55:50.167Z,4.90
2022-08-23T00:58:31.975Z,4.60
2022-08-23T01:01:44.120Z,4.20
2022-08-23T01:08:38.718Z,4.90
2022-08-23T01:39:08.485Z,5.00
2022-08-23T01:44:13.295Z,4.50
2022-08-23T01:45:49.217Z,4.90
2022-08-23T01:46:35.093Z,4.30
2022-08-23T01:49:08.334Z,5.00
2022-08-23T01:51:46.564Z,4.50
2022-08-23T01:54:22.763Z,4.40
2022-08-23T01:56:55.613Z,4.90
2022-08-23T01:59:27.409Z,4.80
2022-08-23T02:04:33.263Z,5.20
2022-08-23T02:05:07.414Z,5.00
2022-08-23T02:07:39.259Z,5.30
2022-08-23T02:10:13.371Z,4.70
2022-08-23T02:12:46.402Z,4.60
2022-08-23T02:19:15.189Z,4.60
2022-08-23T02:19:17.905Z,4.20
2022-08-23T02:22:00.717Z,4.50
2022-08-23T02:27:12.854Z,4.90
2022-08-23T02:35:05.708Z,4.50
2022-08-23T02:37:40.648Z,4.10
2022-08-23T02:47:45.542Z,4.10
2022-08-23T03:00:05.530Z,4.60
2022-08-23T03:01:22.091Z,4.20
2022-08-23T03:03:53.454Z,4.50
2022-08-23T03:06:37.922Z,4.10
2022-08-23T03:09:10.371Z,4.10
2022-08-23T03:11:47.090Z,4.40
2022-08-23T03:14:37.866Z,4.30
2022-08-23T03:19:22.981Z,4.90
2022-08-23T03:24:53.363Z,4.30
2022-08-23T03:28:47.974Z,3.90
2022-08-23T03:32:10.567Z,4.00
2022-08-23T03:39:59.857Z,4.20
2022-08-23T03:40:14.271Z,3.90
2022-08-23T03:59:06.400Z,4.20
2022-08-23T04:01:34.237Z,4.00
2022-08-23T04:04:07.119Z,4.30
2022-08-23T04:10:14.556Z,4.10
2022-08-23T04:10:18.813Z,4.60
2022-08-23T04:20:40.348Z,3.70
2022-08-23T04:26:30.361Z,3.60
2022-08-23T04:29:00.177Z,4.10
2022-08-23T04:31:41.263Z,4.30
2022-08-23T04:34:13.786Z,4.90
2022-08-23T04:36:46.041Z,4.40
2022-08-23T04:39:27.258Z,4.50
2022-08-23T04:42:21.820Z,4.60
2022-08-23T04:45:19.027Z,4.20
2022-08-23T04:47:48.321Z,4.10
2022-08-23T04:50:26.399Z,4.20
2022-08-23T04:53:04.892Z,4.20
2022-08-23T04:55:42.586Z,4.30
2022-08-23T04:58:19.132Z,4.10
2022-08-23T05:00:54.421Z,4.20
2022-08-23T05:03:32.958Z,4.60
2022-08-23T05:06:06.264Z,5.10
2022-08-23T05:08:36.272Z,4.70
2022-08-23T05:11:07.927Z,4.10
2022-08-23T05:13:39.807Z,4.80
2022-08-23T05:16:11.172Z,4.30
2022-08-23T05:18:41.261Z,4.50
2022-08-23T05:21:18.910Z,4.60
2022-08-23T05:23:50.858Z,4.70
2022-08-23T05:26:24.373Z,4.20
2022-08-23T05:28:53.947Z,4.60
2022-08-23T05:31:30.504Z,4.20
2022-08-23T05:34:02.177Z,5.00
2022-08-23T05:36:31.999Z,4.50
2022-08-23T05:39:01.382Z,4.40
2022-08-23T05:41:37.864Z,4.80
2022-08-23T05:44:07.870Z,4.90
2022-08-23T05:46:37.878Z,5.00
2022-08-23T05:49:07.312Z,4.70
2022-08-23T05:51:39.314Z,4.80
2022-08-23T05:54:09.048Z,4.70
2022-08-23T05:56:42.617Z,4.40
2022-08-23T05:59:18.014Z,4.60
2022-08-23T06:01:50.462Z,4.90
2022-08-23T06:04:21.002Z,5.10
2022-08-23T06:06:50.786Z,5.30
2022-08-23T06:09:21.758Z,5.10
2022-08-23T06:11:53.492Z,4.90
2022-08-23T06:14:23.173Z,5.10
2022-08-23T06:16:56.067Z,5.80
2022-08-23T06:19:29.233Z,5.10
2022-08-23T06:21:58.577Z,5.30
2022-08-23T06:24:27.776Z,5.20
2022-08-23T06:26:59.736Z,5.10
2022-08-23T06:29:30.591Z,5.90
2022-08-23T06:31:59.996Z,5.40
2022-08-23T06:34:32.779Z,5.50
2022-08-23T06:37:04.714Z,5.70
2022-08-23T06:39:37.360Z,5.30
2022-08-23T06:42:37.598Z,5.30
2022-08-23T06:45:05.494Z,5.70
2022-08-23T06:47:34.834Z,5.60
2022-08-23T06:50:06.791Z,5.20
2022-08-23T06:52:37.489Z,5.70
2022-08-23T06:55:13.515Z,5.50
2022-08-23T06:57:42.972Z,5.70
2022-08-23T07:00:18.893Z,5.50
2022-08-23T07:02:51.434Z,4.40
2022-08-23T07:05:21.315Z,5.00
2022-08-23T07:07:53.920Z,5.30
2022-08-23T07:10:23.930Z,5.90
2022-08-23T07:12:53.183Z,5.60
2022-08-23T07:15:25.742Z,5.20
2022-08-23T07:17:55.804Z,5.60
2022-08-23T07:20:25.044Z,6.70
2022-08-23T07:22:54.576Z,5.60
2022-08-23T07:25:26.213Z,6.50
2022-08-23T07:27:56.461Z,5.40
2022-08-23T07:30:29.914Z,5.70
2022-08-23T07:32:59.685Z,5.40
2022-08-23T07:35:28.957Z,5.80
2022-08-23T07:37:58.830Z,6.00
2022-08-23T07:40:30.272Z,5.40
2022-08-23T07:43:04.758Z,5.40
2022-08-23T07:45:36.453Z,5.50
2022-08-23T07:48:14.392Z,5.20
2022-08-23T07:50:54.785Z,5.90
2022-08-23T07:53:37.445Z,5.60
2022-08-23T07:56:17.919Z,6.10
2022-08-23T07:58:53.190Z,5.80
2022-08-23T08:01:24.909Z,5.80
2022-08-23T08:04:10.838Z,5.50
2022-08-23T08:06:55.941Z,5.00
2022-08-23T08:09:34.973Z,5.10
2022-08-23T08:12:07.042Z,5.50
2022-08-23T08:14:54.289Z,6.00
2022-08-23T08:17:27.682Z,5.70
2022-08-23T08:19:57.001Z,5.50
2022-08-23T08:22:29.901Z,5.70
2022-08-23T08:24:58.955Z,5.70
2022-08-23T08:27:29.361Z,5.80
2022-08-23T08:30:00.197Z,6.20
2022-08-23T08:32:30.407Z,5.90
2022-08-23T08:35:02.318Z,5.90
2022-08-23T08:37:32.190Z,5.90
2022-08-23T08:40:01.344Z,5.90
2022-08-23T08:42:50.904Z,6.00
2022-08-23T08:45:33.520Z,6.20
2022-08-23T08:48:12.736Z,5.50
2022-08-23T08:50:48.030Z,6.00
2022-08-23T08:53:23.745Z,6.00
2022-08-23T08:56:02.131Z,5.40
2022-08-23T08:58:46.712Z,6.00
2022-08-23T09:01:20.598Z,6.80
2022-08-23T09:03:50.859Z,5.80
2022-08-23T09:06:28.088Z,5.50
2022-08-23T09:09:09.555Z,6.00
2022-08-23T09:11:50.929Z,5.50
2022-08-23T09:14:47.821Z,5.70
2022-08-23T09:17:25.804Z,5.70
2022-08-23T09:20:00.347Z,6.00
2022-08-23T09:22:39.935Z,5.70
2022-08-23T09:25:13.028Z,5.70
2022-08-23T09:27:45.725Z,6.70
2022-08-23T09:30:20.040Z,6.40
2022-08-23T09:32:54.381Z,6.90
2022-08-23T09:35:26.283Z,5.70
2022-08-23T09:38:02.391Z,5.70
2022-08-23T09:40:38.867Z,5.80
2022-08-23T09:43:17.758Z,6.10
2022-08-23T09:46:02.477Z,5.90
2022-08-23T09:48:42.002Z,5.90
2022-08-23T09:51:25.185Z,5.30
2022-08-23T09:54:07.720Z,5.80
2022-08-23T09:56:45.075Z,5.50
2022-08-23T09:59:35.200Z,6.20
2022-08-23T10:12:10.396Z,5.40
2022-08-23T10:14:40.129Z,5.10
2022-08-23T10:17:33.731Z,5.90
2022-08-23T10:20:22.152Z,5.60
2022-08-23T10:23:03.534Z,5.50
2022-08-23T10:25:39.174Z,5.30
2022-08-23T10:28:39.551Z,5.40
2022-08-23T10:31:22.470Z,5.80
2022-08-23T10:34:06.960Z,5.40
2022-08-23T10:36:53.722Z,5.20
2022-08-23T10:39:28.680Z,5.50
2022-08-23T10:42:15.328Z,4.60
2022-08-23T10:44:51.787Z,4.90
2022-08-23T10:47:34.002Z,4.90
2022-08-23T10:50:07.604Z,4.70
2022-08-23T10:52:40.693Z,5.00
2022-08-23T10:55:24.075Z,4.90
2022-08-23T10:57:56.252Z,5.30
2022-08-23T11:00:30.203Z,6.00
2022-08-23T11:03:09.453Z,5.10
2022-08-23T11:05:40.111Z,5.80
2022-08-23T11:08:29.614Z,5.40
2022-08-23T11:11:04.690Z,5.40
2022-08-23T11:13:34.654Z,5.40
2022-08-23T11:16:16.725Z,5.90
2022-08-23T11:18:48.645Z,5.60
2022-08-23T11:21:55.924Z,5.60
2022-08-23T11:24:52.842Z,5.30
2022-08-23T11:30:50.425Z,5.20
2022-08-23T11:33:26.724Z,5.20
2022-08-23T11:36:21.843Z,5.40
2022-08-23T11:39:21.647Z,5.90
2022-08-23T11:42:06.126Z,5.50
2022-08-23T11:44:40.447Z,5.20
2022-08-23T11:47:11.918Z,5.70
2022-08-23T11:50:05.620Z,5.30
2022-08-23T11:53:06.657Z,5.80
2022-08-23T11:56:37.703Z,5.40
2022-08-23T11:59:41.401Z,5.60
2022-08-23T12:02:50.182Z,5.30
2022-08-23T12:05:31.879Z,5.70
2022-08-23T12:08:37.463Z,6.30
2022-08-23T12:11:13.558Z,5.70
2022-08-23T12:14:22.167Z,6.00
2022-08-23T12:16:52.385Z,7.00
2022-08-23T12:19:40.834Z,6.60
2022-08-23T12:22:15.010Z,6.00
2022-08-23T12:25:02.717Z,6.30
2022-08-23T12:27:37.082Z,6.10
2022-08-23T12:30:31.436Z,6.00
2022-08-23T12:33:25.782Z,6.10
2022-08-23T12:36:04.463Z,6.30
2022-08-23T12:38:54.584Z,6.50
2022-08-23T12:41:27.935Z,7.80
2022-08-23T12:44:05.535Z,8.20
2022-08-23T12:46:44.196Z,6.50
2022-08-23T12:49:30.913Z,6.30
2022-08-23T12:52:14.901Z,6.50
2022-08-23T12:54:47.791Z,6.70
2022-08-23T12:57:24.949Z,6.60
2022-08-23T13:00:17.063Z,6.20
2022-08-23T13:05:04.624Z,6.60
2022-08-23T13:06:42.324Z,6.50
2022-08-23T13:09:18.269Z,6.80
2022-08-23T13:11:52.985Z,6.60
2022-08-23T13:14:38.221Z,6.10
2022-08-23T13:17:21.066Z,6.10
2022-08-23T13:19:52.209Z,5.60
2022-08-23T13:22:25.349Z,6.00
2022-08-23T13:25:27.940Z,6.20
2022-08-23T13:27:58.624Z,6.10
2022-08-23T13:30:41.937Z,5.50
2022-08-23T13:33:22.989Z,5.40
2022-08-23T13:36:13.236Z,5.70
2022-08-23T13:38:46.022Z,5.60
2022-08-23T13:44:16.955Z,5.40
2022-08-23T13:46:51.593Z,5.20
2022-08-23T13:49:26.945Z,5.80
2022-08-23T13:52:45.578Z,5.50
2022-08-23T13:54:59.233Z,5.60
2022-08-23T13:57:31.913Z,5.70
2022-08-23T14:00:04.442Z,5.10
2022-08-23T14:02:38.108Z,4.90
2022-08-23T14:05:09.644Z,5.10
2022-08-23T14:07:38.953Z,5.30
2022-08-23T14:10:15.250Z,4.50
2022-08-23T14:12:53.369Z,5.30
2022-08-23T14:18:15.357Z,4.80
2022-08-23T14:20:46.235Z,4.70
2022-08-23T14:23:15.956Z,5.40
2022-08-23T14:25:55.085Z,5.70
2022-08-23T14:28:29.635Z,5.00
2022-08-23T14:30:59.154Z,4.80
2022-08-23T14:33:28.444Z,5.30
2022-08-23T14:35:57.985Z,5.00
2022-08-23T14:38:27.994Z,4.90
2022-08-23T14:40:59.952Z,4.50
2022-08-23T14:43:30.078Z,5.00
2022-08-23T14:46:01.054Z,4.70
2022-08-23T14:48:34.518Z,4.90
2022-08-23T14:56:21.431Z,5.00
2022-08-23T14:58:42.429Z,4.70
2022-08-23T15:06:02.969Z,5.10
2022-08-23T15:08:21.708Z,5.30
2022-08-23T15:08:33.835Z,5.10
2022-08-23T15:13:59.666Z,5.40
2022-08-23T15:16:33.460Z,4.90
2022-08-23T15:19:04.307Z,5.50
2022-08-23T15:21:39.335Z,5.60
2022-08-23T15:24:09.297Z,5.40
2022-08-23T15:26:39.379Z,6.10
2022-08-23T15:29:09.697Z,5.50
2022-08-23T15:31:39.990Z,5.70
2022-08-23T15:34:12.846Z,5.40
2022-08-23T15:36:43.081Z,5.50
2022-08-23T15:39:13.000Z,5.80
2022-08-23T15:41:49.727Z,5.60
2022-08-23T15:44:18.934Z,5.40
2022-08-23T15:46:50.895Z,5.70
2022-08-23T15:49:31.733Z,6.20
2022-08-23T15:52:06.070Z,6.00
2022-08-23T15:54:38.221Z,6.50
2022-08-23T15:57:08.359Z,5.30
2022-08-23T15:59:40.123Z,6.40
2022-08-23T16:02:14.128Z,5.90
2022-08-23T16:04:44.206Z,5.90
2022-08-23T16:07:17.526Z,5.70
2022-08-23T16:09:49.307Z,6.70
2022-08-23T16:12:19.649Z,6.70
2022-08-23T16:14:54.423Z,7.00
2022-08-23T16:17:25.577Z,7.60
2022-08-23T16:19:55.170Z,6.90
2022-08-23T16:30:08.499Z,6.60
2022-08-23T16:30:20.125Z,6.60
2022-08-23T16:32:58.482Z,7.80
2022-08-23T16:40:44.619Z,7.80
2022-08-23T16:43:03.838Z,7.90
2022-08-23T16:45:33.311Z,7.80
2022-08-23T16:48:04.272Z,8.10
2022-08-23T16:50:34.052Z,8.30
2022-08-23T16:53:07.361Z,6.60
2022-08-23T16:55:41.284Z,6.80
2022-08-23T16:58:20.952Z,6.70
2022-08-23T17:00:56.744Z,6.30
2022-08-23T17:04:14.128Z,6.70
2022-08-23T17:06:47.366Z,4.80
2022-08-23T17:09:18.896Z,5.00
2022-08-23T17:11:58.283Z,4.50
2022-08-23T17:14:27.797Z,4.50
2022-08-23T17:17:09.186Z,3.60
2022-08-23T17:20:11.568Z,3.80
2022-08-23T17:27:45.499Z,3.30
2022-08-23T17:30:37.521Z,3.50
2022-08-23T17:33:07.812Z,3.20
2022-08-23T17:35:37.358Z,2.60
2022-08-23T17:38:21.727Z,2.60
2022-08-23T17:41:05.646Z,2.40
2022-08-23T17:43:36.476Z,2.60
2022-08-23T17:46:05.871Z,2.80
2022-08-23T17:48:39.987Z,2.90
2022-08-23T17:51:56.160Z,2.80
2022-08-23T17:54:32.160Z,3.20
2022-08-23T17:57:04.891Z,3.30
2022-08-23T18:01:26.693Z,2.80
2022-08-23T18:03:10.849Z,2.60
2022-08-23T18:05:44.889Z,2.20
2022-08-23T18:15:06.588Z,2.40
2022-08-23T18:19:10.810Z,3.40
2022-08-23T18:19:12.950Z,2.60
2022-08-23T18:19:23.797Z,2.50
2022-08-23T18:21:46.157Z,3.20
2022-08-23T18:24:16.004Z,4.40
2022-08-23T18:27:04.390Z,3.10
2022-08-23T18:29:38.937Z,3.30
2022-08-23T18:32:39.577Z,2.50
2022-08-23T18:35:10.753Z,1.80
2022-08-23T18:37:41.383Z,1.90
2022-08-23T18:40:12.939Z,1.70
2022-08-23T18:42:43.842Z,1.60
2022-08-23T18:45:13.945Z,1.80
2022-08-23T18:47:43.372Z,1.80
2022-08-23T18:50:13.997Z,1.60
2022-08-23T18:52:46.951Z,1.70
2022-08-23T18:55:17.329Z,2.10
2022-08-23T18:57:46.562Z,2.10
2022-08-23T19:00:16.563Z,2.00
2022-08-23T19:02:45.768Z,2.10
2022-08-23T19:05:15.327Z,2.40
2022-08-23T19:07:49.503Z,2.30
2022-08-23T19:10:20.593Z,2.20
2022-08-23T19:12:54.203Z,2.70
2022-08-23T19:15:28.353Z,2.60
2022-08-23T19:17:58.264Z,2.50
2022-08-23T19:20:28.246Z,2.60
2022-08-23T19:23:00.586Z,2.80
2022-08-23T19:25:31.758Z,2.40
2022-08-23T19:28:01.251Z,2.40
2022-08-23T19:30:31.985Z,2.60
2022-08-23T19:33:02.433Z,3.00
2022-08-23T19:35:32.880Z,3.00
2022-08-23T19:38:05.180Z,3.20
2022-08-23T19:40:36.571Z,2.90
2022-08-23T19:43:06.268Z,3.20
2022-08-23T19:45:36.486Z,3.00
2022-08-23T19:48:06.787Z,4.80
2022-08-23T19:50:36.517Z,3.30
2022-08-23T19:53:07.039Z,3.50
2022-08-23T19:55:41.315Z,3.60
2022-08-23T19:58:10.847Z,3.30
2022-08-23T20:00:40.409Z,3.10
2022-08-23T20:03:11.411Z,3.10
2022-08-23T20:05:41.611Z,2.80
2022-08-23T20:08:11.734Z,3.30
2022-08-23T20:10:43.721Z,3.90
2022-08-23T20:13:12.916Z,3.20
2022-08-23T20:15:42.302Z,3.70
2022-08-23T20:18:11.579Z,3.50
2022-08-23T20:20:42.803Z,3.80
2022-08-23T20:23:33.281Z,3.00
2022-08-23T20:26:02.628Z,3.90
2022-08-23T20:28:31.936Z,3.60
2022-08-23T20:31:07.665Z,3.10
2022-08-23T20:33:43.289Z,2.80
2022-08-23T20:36:17.935Z,3.10
2022-08-23T20:38:47.607Z,2.90
2022-08-23T20:41:21.229Z,3.20
2022-08-23T20:43:54.319Z,3.10
2022-08-23T20:46:26.415Z,3.10
2022-08-23T20:48:57.482Z,3.20
2022-08-23T20:51:29.899Z,2.80
2022-08-23T20:54:00.725Z,3.20
2022-08-23T20:56:30.651Z,3.10
2022-08-23T20:59:00.359Z,3.20
2022-08-23T21:01:31.730Z,1.90
2022-08-23T21:04:02.186Z,2.10
2022-08-23T21:06:45.201Z,1.50
2022-08-23T21:09:25.551Z,2.00
2022-08-23T21:11:59.270Z,2.20
2022-08-23T21:14:30.547Z,2.50
2022-08-23T21:17:00.135Z,2.60
2022-08-23T21:19:30.856Z,3.10
2022-08-23T21:22:02.359Z,2.50
2022-08-23T21:24:33.011Z,2.40
2022-08-23T21:27:02.190Z,2.70
2022-08-23T21:29:42.360Z,2.70
2022-08-23T21:32:15.227Z,2.60
2022-08-23T21:34:45.490Z,2.60
2022-08-23T21:37:19.251Z,3.00
2022-08-23T21:39:49.968Z,2.70
2022-08-23T21:42:23.137Z,2.80
2022-08-23T21:44:54.012Z,2.60
2022-08-23T21:47:25.000Z,2.50
2022-08-23T21:49:54.329Z,2.30
2022-08-23T21:52:24.083Z,2.60
2022-08-23T21:54:58.685Z,2.30
2022-08-23T21:57:29.572Z,2.80
2022-08-23T22:00:00.220Z,2.90
2022-08-23T22:02:32.390Z,2.90
2022-08-23T22:05:03.582Z,2.40
2022-08-23T22:07:34.623Z,2.00
2022-08-23T22:10:08.925Z,2.10
2022-08-23T22:12:41.534Z,2.60
2022-08-23T22:15:15.836Z,2.70
2022-08-23T22:17:45.174Z,2.30
2022-08-23T22:20:14.606Z,2.00
2022-08-23T22:22:44.402Z,1.90
2022-08-23T22:25:22.344Z,2.30
2022-08-23T22:30:20.542Z,2.30
2022-08-23T22:32:51.801Z,2.70
2022-08-23T22:35:21.341Z,2.70
2022-08-23T22:38:12.335Z,2.30
2022-08-23T22:40:40.223Z,2.30
2022-08-23T22:43:10.629Z,2.10
2022-08-23T22:46:01.986Z,2.30
2022-08-23T22:48:34.720Z,2.10
2022-08-23T22:51:12.274Z,2.10
2022-08-23T22:53:44.441Z,2.10
2022-08-23T22:56:18.802Z,2.50
2022-08-23T22:58:51.685Z,1.80
2022-08-23T23:01:25.943Z,2.20
2022-08-23T23:03:56.477Z,2.60
2022-08-23T23:06:27.986Z,1.80
2022-08-23T23:08:58.109Z,2.00
2022-08-23T23:11:30.565Z,2.10
2022-08-23T23:13:59.957Z,2.00
2022-08-23T23:16:30.454Z,2.20
2022-08-23T23:19:19.361Z,1.70
2022-08-23T23:21:51.542Z,2.00
2022-08-23T23:24:24.261Z,1.80
2022-08-23T23:26:53.649Z,2.30
2022-08-23T23:29:23.206Z,1.90
2022-08-23T23:31:52.826Z,2.00
2022-08-23T23:34:26.176Z,2.30
2022-08-23T23:36:57.528Z,2.00
2022-08-23T23:39:34.270Z,2.60
2022-08-23T23:46:30.818Z,2.40
2022-08-23T23:49:16.144Z,2.20
2022-08-23T23:51:56.812Z,2.20
2022-08-23T23:54:51.046Z,2.40
2022-08-23T23:57:22.966Z,2.20
2022-08-23T23:59:54.893Z,1.90
